createdAt,value
2023-09-27T00:01:56.594Z,100824.72
2023-09-27T00:04:26.992Z,100829.09
2023-09-27T00:06:57.434Z,100825.56
2023-09-27T00:09:27.690Z,100831.81
2023-09-27T00:11:59.314Z,100826.50
2023-09-27T00:14:29.618Z,100832.66
2023-09-27T00:17:02.950Z,100839.00
2023-09-27T00:19:34.074Z,100840.06
2023-09-27T00:22:04.362Z,100842.72
2023-09-27T00:24:35.545Z,100834.94
2023-09-27T00:27:05.716Z,100837.59
2023-09-27T00:29:36.054Z,100833.31
2023-09-27T00:32:09.912Z,100838.53
2023-09-27T00:34:40.225Z,100840.41
2023-09-27T00:37:11.107Z,100840.41
2023-09-27T00:39:41.298Z,100850.16
2023-09-27T00:42:11.550Z,100854.63
2023-09-27T00:44:41.774Z,100843.25
2023-09-27T00:47:15.523Z,100840.59
2023-09-27T00:49:47.706Z,100840.78
2023-09-27T00:52:18.018Z,100839.84
2023-09-27T00:54:49.976Z,100833.78
2023-09-27T00:57:20.508Z,100847.13
2023-09-27T00:59:51.021Z,100848.91
2023-09-27T01:02:24.227Z,100856.03
2023-09-27T01:04:55.921Z,100858.59
2023-09-27T01:07:26.190Z,100860.50
2023-09-27T01:09:56.534Z,100866.72
2023-09-27T01:12:27.023Z,100861.53
2023-09-27T01:14:57.705Z,100863.31
2023-09-27T01:17:30.571Z,100863.22
2023-09-27T01:20:00.893Z,100872.03
2023-09-27T01:22:31.128Z,100876.41
2023-09-27T01:25:06.103Z,100880.97
2023-09-27T01:27:36.640Z,100891.56
2023-09-27T01:30:07.231Z,100887.09
2023-09-27T01:32:37.780Z,100881.78
2023-09-27T01:35:09.742Z,100879.22
2023-09-27T01:37:40.232Z,100873.19
2023-09-27T01:40:18.616Z,100880.16
2023-09-27T01:42:48.908Z,100883.78
2023-09-27T01:45:19.301Z,100885.47
2023-09-27T01:47:49.621Z,100891.81
2023-09-27T01:50:21.104Z,100900.72
2023-09-27T01:52:51.354Z,100904.31
2023-09-27T01:55:24.658Z,100904.41
2023-09-27T01:57:55.196Z,100905.25
2023-09-27T02:00:25.642Z,100904.50
2023-09-27T02:03:00.399Z,100910.81
2023-09-27T02:05:32.924Z,100912.53
2023-09-27T02:08:03.332Z,100907.25
2023-09-27T02:10:36.228Z,100897.50
2023-09-27T02:13:06.958Z,100900.22
2023-09-27T02:15:37.405Z,100901.09
2023-09-27T02:18:08.278Z,100885.34
2023-09-27T02:20:38.920Z,100895.03
2023-09-27T02:23:09.344Z,100896.72
2023-09-27T02:25:42.668Z,100900.41
2023-09-27T02:28:12.891Z,100891.59
2023-09-27T02:30:43.743Z,100885.53
2023-09-27T02:33:13.976Z,100882.88
2023-09-27T02:35:45.012Z,100870.66
2023-09-27T02:38:15.590Z,100880.41
2023-09-27T02:40:48.562Z,100884.88
2023-09-27T02:43:19.081Z,100895.47
2023-09-27T02:45:50.954Z,100896.41
2023-09-27T02:48:21.209Z,100901.81
2023-09-27T02:50:53.877Z,100906.25
2023-09-27T02:53:24.617Z,100907.13
2023-09-27T02:55:57.490Z,100902.75
2023-09-27T02:58:27.660Z,100909.06
2023-09-27T03:00:58.380Z,100902.91
2023-09-27T03:03:29.161Z,100906.44
2023-09-27T03:05:59.486Z,100915.31
2023-09-27T03:08:31.072Z,100913.63
2023-09-27T03:11:08.143Z,100919.09
2023-09-27T03:13:38.457Z,100923.44
2023-09-27T03:16:08.860Z,100931.22
2023-09-27T03:18:39.174Z,100918.94
2023-09-27T03:21:09.749Z,100910.28
2023-09-27T03:23:40.014Z,100922.69
2023-09-27T03:26:13.255Z,100923.59
2023-09-27T03:28:43.534Z,100926.25
2023-09-27T03:31:13.969Z,100929.00
2023-09-27T03:33:44.190Z,100929.88
2023-09-27T03:36:14.426Z,100934.22
2023-09-27T03:38:44.626Z,100933.28
2023-09-27T03:41:17.622Z,100942.16
2023-09-27T03:43:49.183Z,100941.41
2023-09-27T03:46:19.562Z,100944.03
2023-09-27T03:48:49.855Z,100943.28
2023-09-27T03:51:27.603Z,100945.94
2023-09-27T03:53:58.231Z,100937.22
2023-09-27T03:56:36.177Z,100935.50
2023-09-27T03:59:06.763Z,100946.13
2023-09-27T04:01:37.329Z,100932.84
2023-09-27T04:04:08.144Z,100932.09
2023-09-27T04:06:38.757Z,100940.06
2023-09-27T04:09:10.821Z,100944.41
2023-09-27T04:11:43.835Z,100948.75
2023-09-27T04:14:14.229Z,100945.34
2023-09-27T04:16:44.475Z,100942.69
2023-09-27T04:19:14.846Z,100945.25
2023-09-27T04:21:45.005Z,100944.59
2023-09-27T04:24:15.313Z,100951.75
2023-09-27T04:26:48.265Z,100951.56
2023-09-27T04:29:18.587Z,100947.41
2023-09-27T04:31:48.882Z,100960.50
2023-09-27T04:34:19.299Z,100969.97
2023-09-27T04:36:49.502Z,100983.22
2023-09-27T04:39:20.768Z,100994.66
2023-09-27T04:41:53.550Z,101004.25
2023-09-27T04:44:24.450Z,100996.19
2023-09-27T04:46:55.761Z,100991.75
2023-09-27T04:49:25.960Z,100993.53
2023-09-27T04:51:56.163Z,101002.34
2023-09-27T04:54:26.497Z,101005.00
2023-09-27T04:56:59.625Z,101000.66
2023-09-27T04:59:29.938Z,100999.69
2023-09-27T05:02:00.256Z,100996.81
2023-09-27T05:04:30.446Z,100994.06
2023-09-27T05:07:00.840Z,101000.13
2023-09-27T05:09:31.394Z,101007.06
2023-09-27T05:12:05.049Z,101014.78
2023-09-27T05:14:35.482Z,101018.06
2023-09-27T05:17:06.407Z,101017.03
2023-09-27T05:19:36.814Z,101013.28
2023-09-27T05:22:07.084Z,101015.78
2023-09-27T05:24:40.377Z,101009.69
2023-09-27T05:27:13.298Z,101000.81
2023-09-27T05:29:43.684Z,101003.44
2023-09-27T05:32:14.142Z,101000.69
2023-09-27T05:34:44.664Z,100997.38
2023-09-27T05:37:16.117Z,100992.25
2023-09-27T05:39:46.463Z,100990.63
2023-09-27T05:42:19.305Z,100989.66
2023-09-27T05:44:49.610Z,101001.13
2023-09-27T05:47:19.979Z,101000.22
2023-09-27T05:49:50.366Z,101008.00
2023-09-27T05:52:20.660Z,101003.63
2023-09-27T05:54:52.937Z,101008.16
2023-09-27T05:57:25.866Z,101010.38
2023-09-27T05:59:56.137Z,101020.88
2023-09-27T06:02:32.612Z,101028.34
2023-09-27T06:05:04.986Z,101019.81
2023-09-27T06:07:35.295Z,101019.88
2023-09-27T06:10:05.897Z,101028.03
2023-09-27T06:12:38.952Z,101015.69
2023-09-27T06:15:11.401Z,101012.28
2023-09-27T06:17:41.830Z,101005.44
2023-09-27T06:20:21.662Z,101000.13
2023-09-27T06:22:54.368Z,101009.88
2023-09-27T06:25:30.456Z,101000.13
2023-09-27T06:28:04.329Z,101012.63
2023-09-27T06:30:34.848Z,101023.13
2023-09-27T06:33:05.228Z,101017.22
2023-09-27T06:35:35.929Z,101017.06
2023-09-27T06:38:07.260Z,101013.81
2023-09-27T06:40:37.878Z,101016.31
2023-09-27T06:43:10.855Z,101017.94
2023-09-27T06:45:44.296Z,101023.28
2023-09-27T06:48:14.956Z,101020.66
2023-09-27T06:50:48.456Z,101012.78
2023-09-27T06:53:24.236Z,101014.50
2023-09-27T06:55:57.128Z,101018.09
2023-09-27T06:58:31.602Z,101021.59
2023-09-27T07:01:02.291Z,101032.19
2023-09-27T07:03:35.866Z,101027.84
2023-09-27T07:06:07.219Z,101032.28
2023-09-27T07:08:38.211Z,101029.72
2023-09-27T07:11:09.722Z,101011.25
2023-09-27T07:13:43.461Z,101012.25
2023-09-27T07:16:28.058Z,101013.97
2023-09-27T07:19:01.365Z,101006.97
2023-09-27T07:21:32.146Z,101002.47
2023-09-27T07:24:02.960Z,100991.00
2023-09-27T07:26:34.384Z,100983.91
2023-09-27T07:29:09.671Z,100991.06
2023-09-27T07:31:40.631Z,100975.09
2023-09-27T07:34:11.771Z,100970.56
2023-09-27T07:36:41.892Z,100964.34
2023-09-27T07:39:13.185Z,100979.28
2023-09-27T07:41:44.503Z,100968.59
2023-09-27T07:44:19.659Z,100964.25
2023-09-27T07:46:50.432Z,100955.25
2023-09-27T07:49:21.102Z,100946.28
2023-09-27T07:51:51.853Z,100937.41
2023-09-27T07:54:22.876Z,100932.09
2023-09-27T07:56:55.928Z,100937.41
2023-09-27T07:59:29.890Z,100945.34
2023-09-27T08:02:00.963Z,100944.41
2023-09-27T08:04:31.782Z,100936.66
2023-09-27T08:07:02.416Z,100941.16
2023-09-27T08:09:41.009Z,100932.28
2023-09-27T08:12:12.153Z,100921.66
2023-09-27T08:14:45.707Z,100922.59
2023-09-27T08:17:16.723Z,100920.91
2023-09-27T08:19:47.377Z,100921.66
2023-09-27T08:22:18.505Z,100932.38
2023-09-27T08:24:49.695Z,100932.38
2023-09-27T08:27:21.400Z,100930.75
2023-09-27T08:29:54.618Z,100935.84
2023-09-27T08:32:25.348Z,100944.94
2023-09-27T08:34:56.002Z,100947.59
2023-09-27T08:37:26.399Z,100943.13
2023-09-27T08:39:57.468Z,100937.75
2023-09-27T08:42:28.870Z,100928.09
2023-09-27T08:45:04.833Z,100935.09
2023-09-27T08:47:36.772Z,100948.34
2023-09-27T08:50:07.848Z,100965.97
2023-09-27T08:52:42.824Z,100965.97
2023-09-27T08:55:14.679Z,100966.81
2023-09-27T08:57:50.213Z,100956.28
2023-09-27T09:00:28.806Z,100968.59
2023-09-27T09:03:04.666Z,100970.41
2023-09-27T09:05:36.282Z,100959.91
2023-09-27T09:08:09.101Z,100964.25
2023-09-27T09:10:41.825Z,100958.78
2023-09-27T09:13:15.620Z,100945.53
2023-09-27T09:15:50.432Z,100952.59
2023-09-27T09:18:34.647Z,100942.00
2023-09-27T09:21:10.430Z,100938.50
2023-09-27T09:23:48.170Z,100920.16
2023-09-27T09:26:31.292Z,100942.19
2023-09-27T09:29:04.090Z,100939.63
2023-09-27T09:31:37.432Z,100946.66
2023-09-27T09:34:08.388Z,100944.94
2023-09-27T09:36:40.117Z,100942.19
2023-09-27T09:39:15.255Z,100934.34
2023-09-27T09:41:50.462Z,100929.78
2023-09-27T09:44:21.070Z,100921.84
2023-09-27T09:46:58.505Z,100928.09
2023-09-27T09:49:29.221Z,100937.75
2023-09-27T09:52:01.321Z,100941.34
2023-09-27T09:54:39.573Z,100943.03
2023-09-27T09:57:18.700Z,100945.78
2023-09-27T10:00:00.240Z,100947.59
2023-09-27T10:02:37.026Z,100948.44
2023-09-27T10:05:10.266Z,100942.34
2023-09-27T10:07:42.568Z,100947.66
2023-09-27T10:10:15.131Z,100938.88
2023-09-27T10:12:46.797Z,100933.56
2023-09-27T10:15:19.466Z,100938.06
2023-09-27T10:17:53.201Z,100931.09
2023-09-27T10:20:25.922Z,100940.81
2023-09-27T10:22:59.120Z,100940.81
2023-09-27T10:25:39.300Z,100939.09
2023-09-27T10:28:14.247Z,100928.50
2023-09-27T10:31:19.552Z,100918.00
2023-09-27T10:33:55.191Z,100918.00
2023-09-27T10:36:35.794Z,100918.94
2023-09-27T10:39:10.809Z,100906.66
2023-09-27T10:41:48.824Z,100906.66
2023-09-27T10:44:35.047Z,100895.38
2023-09-27T10:47:07.912Z,100890.75
2023-09-27T10:49:45.176Z,100880.16
2023-09-27T10:52:20.451Z,100872.28
2023-09-27T10:54:53.532Z,100871.44
2023-09-27T10:57:25.765Z,100858.19
2023-09-27T10:59:56.906Z,100856.50
2023-09-27T11:02:34.382Z,100850.22
2023-09-27T11:05:08.280Z,100848.44
2023-09-27T11:07:54.213Z,100845.78
2023-09-27T11:10:36.310Z,100842.28
2023-09-27T11:13:12.183Z,100831.69
2023-09-27T11:15:43.508Z,100823.75
2023-09-27T11:18:14.957Z,100822.81
2023-09-27T11:20:50.015Z,100817.50
2023-09-27T11:23:22.586Z,100809.56
2023-09-27T11:25:53.916Z,100807.84
2023-09-27T11:28:24.725Z,100812.22
2023-09-27T11:31:02.189Z,100804.28
2023-09-27T11:33:36.160Z,100805.13
2023-09-27T11:36:12.387Z,100790.09
2023-09-27T11:38:43.016Z,100779.56
2023-09-27T11:41:18.288Z,100777.59
2023-09-27T11:43:50.738Z,100769.75
2023-09-27T11:46:33.616Z,100761.72
2023-09-27T11:49:11.982Z,100756.41
2023-09-27T11:51:45.300Z,100746.69
2023-09-27T11:54:16.788Z,100738.63
2023-09-27T11:56:48.523Z,100729.00
2023-09-27T11:59:19.273Z,100727.16
2023-09-27T12:01:50.150Z,100721.03
2023-09-27T12:04:20.835Z,100708.72
2023-09-27T12:06:54.540Z,100700.78
2023-09-27T12:09:25.240Z,100688.56
2023-09-27T12:11:55.986Z,100676.44
2023-09-27T12:14:26.645Z,100672.97
2023-09-27T12:16:57.489Z,100660.84
2023-09-27T12:19:28.029Z,100647.59
2023-09-27T12:22:01.484Z,100635.38
2023-09-27T12:24:32.435Z,100638.78
2023-09-27T12:27:03.355Z,100639.97
2023-09-27T12:29:34.533Z,100617.84
2023-09-27T12:32:05.209Z,100614.31
2023-09-27T12:34:37.175Z,100608.03
2023-09-27T12:37:12.395Z,100609.84
2023-09-27T12:39:42.818Z,100607.44
2023-09-27T12:42:13.464Z,100589.88
2023-09-27T12:44:44.570Z,100596.00
2023-09-27T12:47:16.549Z,100578.13
2023-09-27T12:49:48.174Z,100564.81
2023-09-27T12:52:21.519Z,100568.13
2023-09-27T12:54:52.365Z,100559.44
2023-09-27T12:57:22.740Z,100561.16
2023-09-27T12:59:53.844Z,100562.09
2023-09-27T13:02:25.126Z,100553.28
2023-09-27T13:04:55.834Z,100534.66
2023-09-27T13:07:28.919Z,100529.38
2023-09-27T13:09:59.557Z,100519.72
2023-09-27T13:12:30.133Z,100514.41
2023-09-27T13:15:01.231Z,100514.41
2023-09-27T13:17:32.205Z,100514.41
2023-09-27T13:20:02.636Z,100511.59
2023-09-27T13:22:35.744Z,100510.72
2023-09-27T13:25:07.961Z,100506.38
2023-09-27T13:27:38.675Z,100510.84
2023-09-27T13:30:32.988Z,100508.19
2023-09-27T13:33:06.781Z,100498.34
2023-09-27T13:35:39.589Z,100489.44
2023-09-27T13:38:14.320Z,100484.25
2023-09-27T13:40:45.607Z,100474.69
2023-09-27T13:43:16.454Z,100477.22
2023-09-27T13:45:48.241Z,100478.94
2023-09-27T13:48:19.125Z,100476.28
2023-09-27T13:50:49.809Z,100471.00
2023-09-27T13:53:22.986Z,100458.63
2023-09-27T13:55:53.944Z,100455.97
2023-09-27T13:58:24.627Z,100440.69
2023-09-27T14:00:56.189Z,100429.28
2023-09-27T14:03:26.905Z,100415.81
2023-09-27T14:05:57.380Z,100410.53
2023-09-27T14:08:30.743Z,100397.19
2023-09-27T14:11:01.878Z,100389.31
2023-09-27T14:13:31.877Z,100378.72
2023-09-27T14:16:02.504Z,100369.84
2023-09-27T14:18:33.073Z,100354.69
2023-09-27T14:21:03.696Z,100346.00
2023-09-27T14:23:37.604Z,100334.47
2023-09-27T14:26:09.365Z,100320.28
2023-09-27T14:28:40.474Z,100309.59
2023-09-27T14:31:10.894Z,100294.63
2023-09-27T14:33:41.680Z,100272.59
2023-09-27T14:36:12.370Z,100276.00
2023-09-27T14:38:47.183Z,100260.31
2023-09-27T14:41:17.787Z,100256.69
2023-09-27T14:43:48.345Z,100239.13
2023-09-27T14:46:19.329Z,100241.66
2023-09-27T14:48:49.961Z,100236.34
2023-09-27T14:51:21.755Z,100228.53
2023-09-27T14:53:55.060Z,100223.22
2023-09-27T14:56:25.560Z,100219.63
2023-09-27T14:58:56.191Z,100206.50
2023-09-27T15:01:26.808Z,100202.03
2023-09-27T15:03:57.795Z,100187.09
2023-09-27T15:06:28.491Z,100179.88
2023-09-27T15:09:01.876Z,100170.16
2023-09-27T15:11:32.672Z,100170.16
2023-09-27T15:14:04.067Z,100168.56
2023-09-27T15:16:38.612Z,100157.03
2023-09-27T15:19:09.765Z,100137.72
2023-09-27T15:21:41.059Z,100136.69
2023-09-27T15:24:15.290Z,100132.31
2023-09-27T15:26:49.241Z,100121.09
2023-09-27T15:29:19.966Z,100107.63
2023-09-27T15:31:50.827Z,100094.41
2023-09-27T15:34:22.169Z,100087.31
2023-09-27T15:36:53.058Z,100084.75
2023-09-27T15:39:26.724Z,100077.03
2023-09-27T15:41:58.345Z,100074.25
2023-09-27T15:44:30.748Z,100066.19
2023-09-27T15:47:01.903Z,100058.38
2023-09-27T15:49:33.463Z,100038.97
2023-09-27T15:52:03.947Z,100036.34
2023-09-27T15:54:37.464Z,100029.13
2023-09-27T15:57:08.545Z,100013.47
2023-09-27T15:59:39.899Z,100009.00
2023-09-27T16:02:10.026Z,99997.16
2023-09-27T16:04:51.522Z,99983.06
2023-09-27T16:07:23.173Z,99957.94
2023-09-27T16:09:56.563Z,99950.94
2023-09-27T16:12:27.743Z,99939.09
2023-09-27T16:14:58.032Z,99946.75
2023-09-27T16:17:28.589Z,99945.91
2023-09-27T16:19:59.381Z,99926.38
2023-09-27T16:22:29.765Z,99923.88
2023-09-27T16:25:05.110Z,99907.97
2023-09-27T16:27:35.636Z,99882.22
2023-09-27T16:30:07.270Z,99879.56
2023-09-27T16:32:38.819Z,99862.00
2023-09-27T16:35:10.575Z,99852.88
2023-09-27T16:37:41.064Z,99829.75
2023-09-27T16:40:15.531Z,99824.25
2023-09-27T16:42:46.037Z,99816.31
2023-09-27T16:45:17.223Z,99820.66
2023-09-27T16:47:48.290Z,99822.31
2023-09-27T16:50:18.476Z,99819.56
2023-09-27T16:52:48.925Z,99802.84
2023-09-27T16:55:22.194Z,99783.34
2023-09-27T16:57:52.805Z,99783.44
2023-09-27T17:00:23.467Z,99772.63
2023-09-27T17:02:55.261Z,99769.13
2023-09-27T17:05:27.761Z,99757.69
2023-09-27T17:07:58.902Z,99763.75
2023-09-27T17:10:34.445Z,99769.97
2023-09-27T17:13:12.829Z,99758.31
2023-09-27T17:15:47.248Z,99741.56
2023-09-27T17:18:18.598Z,99744.22
2023-09-27T17:20:50.171Z,99715.09
2023-09-27T17:23:26.368Z,99692.94
2023-09-27T17:26:00.187Z,99672.59
2023-09-27T17:28:31.064Z,99679.47
2023-09-27T17:31:01.750Z,99686.44
2023-09-27T17:33:35.939Z,99676.69
2023-09-27T17:36:08.574Z,99678.38
2023-09-27T17:38:40.411Z,99678.38
2023-09-27T17:41:14.659Z,99655.50
2023-09-27T17:43:45.597Z,99637.94
2023-09-27T17:46:29.771Z,99634.06
2023-09-27T17:49:05.844Z,99607.59
2023-09-27T17:51:42.252Z,99619.03
2023-09-27T17:54:14.053Z,99591.31
2023-09-27T17:56:52.089Z,99576.50
2023-09-27T17:59:23.782Z,99563.78
2023-09-27T18:01:56.666Z,99569.56
2023-09-27T18:04:31.058Z,99550.03
2023-09-27T18:07:03.295Z,99536.69
2023-09-27T18:09:34.301Z,99515.50
2023-09-27T18:12:10.433Z,99515.13
2023-09-27T18:14:43.476Z,99510.53
2023-09-27T18:17:14.961Z,99511.25
2023-09-27T18:19:47.458Z,99505.94
2023-09-27T18:22:18.396Z,99487.41
2023-09-27T18:24:54.177Z,99472.25
2023-09-27T18:27:31.416Z,99482.84
2023-09-27T18:30:02.714Z,99466.09
2023-09-27T18:32:35.937Z,99458.84
2023-09-27T18:35:11.576Z,99431.16
2023-09-27T18:37:44.322Z,99421.28
2023-09-27T18:40:16.128Z,99422.97
2023-09-27T18:42:51.498Z,99420.19
2023-09-27T18:45:23.635Z,99421.75
2023-09-27T18:47:57.068Z,99414.50
2023-09-27T18:50:29.540Z,99401.84
2023-09-27T18:53:00.469Z,99394.75
2023-09-27T18:55:33.979Z,99377.84
2023-09-27T18:58:08.360Z,99368.94
2023-09-27T19:00:39.511Z,99359.31
2023-09-27T19:03:11.947Z,99344.38
2023-09-27T19:05:43.277Z,99332.94
2023-09-27T19:08:15.746Z,99316.78
2023-09-27T19:10:47.194Z,99292.94
2023-09-27T19:13:23.827Z,99288.34
2023-09-27T19:15:56.761Z,99284.84
2023-09-27T19:18:31.050Z,99255.84
2023-09-27T19:21:11.689Z,99261.84
2023-09-27T19:23:46.796Z,99249.28
2023-09-27T19:26:24.155Z,99247.63
2023-09-27T19:28:59.036Z,99226.41
2023-09-27T19:31:38.846Z,99213.88
2023-09-27T19:34:21.779Z,99214.72
2023-09-27T19:37:02.142Z,99185.56
2023-09-27T19:39:34.404Z,99183.72
2023-09-27T19:42:08.500Z,99169.50
2023-09-27T19:44:44.479Z,99165.91
2023-09-27T19:47:21.917Z,99165.91
2023-09-27T19:49:58.948Z,99143.00
2023-09-27T19:52:34.919Z,99151.91
2023-09-27T19:55:14.995Z,99143.84
2023-09-27T19:57:50.234Z,99111.63
2023-09-27T20:00:26.526Z,99086.66
2023-09-27T20:03:06.041Z,99092.97
2023-09-27T20:05:43.308Z,99091.47
2023-09-27T20:08:15.608Z,99087.56
2023-09-27T20:10:48.847Z,99085.78
2023-09-27T20:13:26.516Z,99071.13
2023-09-27T20:16:05.182Z,99063.63
2023-09-27T20:18:40.005Z,99038.50
2023-09-27T20:21:15.024Z,99029.84
2023-09-27T20:23:51.036Z,99024.53
2023-09-27T20:26:30.988Z,99028.03
2023-09-27T20:29:03.213Z,99015.31
2023-09-27T20:31:40.945Z,99006.25
2023-09-27T20:34:13.039Z,98993.81
2023-09-27T20:36:49.780Z,98990.06
2023-09-27T20:39:23.842Z,98990.91
2023-09-27T20:41:57.935Z,98983.78
2023-09-27T20:44:31.287Z,98963.94
2023-09-27T20:47:08.298Z,98964.78
2023-09-27T20:49:43.680Z,98937.00
2023-09-27T20:52:16.133Z,98934.63
2023-09-27T20:54:50.206Z,98930.44
2023-09-27T20:57:22.395Z,98930.69
2023-09-27T20:59:59.061Z,98930.00
2023-09-27T21:02:40.394Z,98916.06
2023-09-27T21:05:22.589Z,98903.78
2023-09-27T21:07:59.400Z,98897.78
2023-09-27T21:10:32.691Z,98896.81
2023-09-27T21:13:04.750Z,98889.66
2023-09-27T21:15:38.092Z,98894.97
2023-09-27T21:18:15.020Z,98888.84
2023-09-27T21:20:48.684Z,98882.72
2023-09-27T21:23:28.550Z,98875.59
2023-09-27T21:26:00.011Z,98878.94
2023-09-27T21:28:31.949Z,98867.63
2023-09-27T21:31:03.295Z,98862.31
2023-09-27T21:33:38.739Z,98843.75
2023-09-27T21:36:10.955Z,98839.13
2023-09-27T21:38:42.992Z,98832.16
2023-09-27T21:41:14.551Z,98816.38
2023-09-27T21:43:46.737Z,98811.94
2023-09-27T21:46:25.891Z,98797.81
2023-09-27T21:49:00.932Z,98802.13
2023-09-27T21:51:33.280Z,98797.66
2023-09-27T21:54:06.894Z,98795.00
2023-09-27T21:56:38.757Z,98795.00
2023-09-27T21:59:10.602Z,98785.25
2023-09-27T22:01:45.155Z,98771.53
2023-09-27T22:04:20.792Z,98764.47
2023-09-27T22:06:54.192Z,98766.72
2023-09-27T22:09:26.270Z,98757.38
2023-09-27T22:11:57.831Z,98753.34
2023-09-27T22:14:28.832Z,98740.47
2023-09-27T22:17:04.505Z,98730.19
2023-09-27T22:19:43.760Z,98725.84
2023-09-27T22:22:22.703Z,98718.19
2023-09-27T22:24:54.181Z,98713.31
2023-09-27T22:27:28.240Z,98701.88
2023-09-27T22:29:59.677Z,98692.41
2023-09-27T22:32:33.708Z,98692.53
2023-09-27T22:35:21.327Z,98675.09
2023-09-27T22:37:55.008Z,98664.50
2023-09-27T22:40:27.916Z,98658.50
2023-09-27T22:43:00.848Z,98656.16
2023-09-27T22:45:36.790Z,98647.38
2023-09-27T22:48:14.695Z,98638.72
2023-09-27T22:50:50.813Z,98633.59
2023-09-27T22:53:24.052Z,98622.16
2023-09-27T22:55:59.702Z,98610.03
2023-09-27T22:58:32.983Z,98604.72
2023-09-27T23:01:22.078Z,98600.69
2023-09-27T23:03:55.477Z,98579.47
2023-09-27T23:06:30.476Z,98580.47
2023-09-27T23:09:07.888Z,98566.38
2023-09-27T23:11:42.220Z,98563.06
2023-09-27T23:14:23.522Z,98562.22
2023-09-27T23:17:14.829Z,98555.22
2023-09-27T23:19:45.262Z,98544.63
2023-09-27T23:22:18.992Z,98527.09
2023-09-27T23:24:51.022Z,98516.50
2023-09-27T23:27:28.218Z,98510.50
2023-09-27T23:29:57.453Z,98501.84
2023-09-27T23:32:31.649Z,98500.03
2023-09-27T23:35:00.724Z,98504.66
2023-09-27T23:37:36.688Z,98505.50
2023-09-27T23:40:15.017Z,98498.53
2023-09-27T23:42:48.539Z,98494.19
2023-09-27T23:45:19.822Z,98489.06
2023-09-27T23:47:52.360Z,98483.75
2023-09-27T23:50:31.489Z,98481.13
2023-09-27T23:53:07.168Z,98465.38
2023-09-27T23:55:42.566Z,98467.19
2023-09-27T23:58:14.208Z,98467.19
